Terminal Aerodrome Forecast
Issued by NWS

Home | Current Version | Previous Version | Text Only | Print | Product List | Glossary On
Versions: 1 2 3 4 5 6 7 8 9 10 11 12 13 14 15 16 17 18 19 20 21 22 23 24 25 26 27 28 29 30 31 32 33 34 35 36 37 38 39 40 41 42 43 44
000
FTUS46 KPQR 211432 AAA
TAFONP
TAF AMD
KONP 211432Z 2115/2212 19014G21KT 5SM BR BKN010 BKN050
     FM211900 19015G25KT 4SM -RA BR SCT025 OVC045
     FM220300 19020G30KT 3SM -RA OVC025
     FM220700 19027G40KT 3SM RA BKN018 OVC025=

USA.gov is the U.S. government's official web portal to all federal, state and local government web resources and services.